sensor_id;sensor_type;location;lat;lon;timestamp;temperature;humidity
25871;DHT22;13689;48.590;7.752;2023-01-20T00:01:24;3.90;80.80
25871;DHT22;13689;48.590;7.752;2023-01-20T00:03:52;3.90;80.80
25871;DHT22;13689;48.590;7.752;2023-01-20T00:06:18;3.90;80.80
25871;DHT22;13689;48.590;7.752;2023-01-20T00:08:43;3.90;80.80
25871;DHT22;13689;48.590;7.752;2023-01-20T00:11:11;3.90;80.90
25871;DHT22;13689;48.590;7.752;2023-01-20T00:13:37;3.80;80.90
25871;DHT22;13689;48.590;7.752;2023-01-20T00:16:05;3.90;81.00
25871;DHT22;13689;48.590;7.752;2023-01-20T00:18:31;3.90;81.00
25871;DHT22;13689;48.590;7.752;2023-01-20T00:21:29;3.90;81.00
25871;DHT22;13689;48.590;7.752;2023-01-20T00:23:55;3.90;80.90
25871;DHT22;13689;48.590;7.752;2023-01-20T00:26:23;3.90;80.90
25871;DHT22;13689;48.590;7.752;2023-01-20T00:28:51;3.80;81.00
25871;DHT22;13689;48.590;7.752;2023-01-20T00:31:18;3.90;81.10
25871;DHT22;13689;48.590;7.752;2023-01-20T00:33:45;3.80;81.10
25871;DHT22;13689;48.590;7.752;2023-01-20T00:36:12;3.80;81.30
25871;DHT22;13689;48.590;7.752;2023-01-20T00:38:38;3.80;81.20
25871;DHT22;13689;48.590;7.752;2023-01-20T00:41:04;3.80;81.20
25871;DHT22;13689;48.590;7.752;2023-01-20T00:43:30;3.80;81.20
25871;DHT22;13689;48.590;7.752;2023-01-20T00:45:55;3.80;81.30
25871;DHT22;13689;48.590;7.752;2023-01-20T00:48:21;3.90;81.30
25871;DHT22;13689;48.590;7.752;2023-01-20T00:50:46;3.80;81.30
25871;DHT22;13689;48.590;7.752;2023-01-20T00:53:12;3.80;81.30
25871;DHT22;13689;48.590;7.752;2023-01-20T00:55:38;3.80;81.40
25871;DHT22;13689;48.590;7.752;2023-01-20T00:58:04;3.90;81.40
25871;DHT22;13689;48.590;7.752;2023-01-20T01:00:30;3.80;81.40
25871;DHT22;13689;48.590;7.752;2023-01-20T01:02:55;3.80;81.40
25871;DHT22;13689;48.590;7.752;2023-01-20T01:05:21;3.80;81.50
25871;DHT22;13689;48.590;7.752;2023-01-20T01:07:47;3.80;81.60
25871;DHT22;13689;48.590;7.752;2023-01-20T01:10:12;3.80;81.60
25871;DHT22;13689;48.590;7.752;2023-01-20T01:12:38;3.70;81.60
25871;DHT22;13689;48.590;7.752;2023-01-20T01:15:04;3.70;81.60
25871;DHT22;13689;48.590;7.752;2023-01-20T01:17:30;3.70;81.70
25871;DHT22;13689;48.590;7.752;2023-01-20T01:19:56;3.60;81.60
25871;DHT22;13689;48.590;7.752;2023-01-20T01:22:21;3.60;81.80
25871;DHT22;13689;48.590;7.752;2023-01-20T01:24:47;3.60;81.90
25871;DHT22;13689;48.590;7.752;2023-01-20T01:27:13;3.60;82.00
25871;DHT22;13689;48.590;7.752;2023-01-20T01:29:39;3.60;82.10
25871;DHT22;13689;48.590;7.752;2023-01-20T01:32:05;3.60;82.10
25871;DHT22;13689;48.590;7.752;2023-01-20T01:34:32;3.60;82.10
25871;DHT22;13689;48.590;7.752;2023-01-20T01:36:57;3.60;82.10
25871;DHT22;13689;48.590;7.752;2023-01-20T01:39:23;3.60;82.10
25871;DHT22;13689;48.590;7.752;2023-01-20T01:41:49;3.60;82.30
25871;DHT22;13689;48.590;7.752;2023-01-20T01:44:15;3.60;82.20
25871;DHT22;13689;48.590;7.752;2023-01-20T01:46:41;3.50;82.20
25871;DHT22;13689;48.590;7.752;2023-01-20T01:49:16;3.40;82.40
25871;DHT22;13689;48.590;7.752;2023-01-20T01:51:57;3.50;82.70
25871;DHT22;13689;48.590;7.752;2023-01-20T01:54:26;3.50;82.60
25871;DHT22;13689;48.590;7.752;2023-01-20T01:56:53;3.40;82.50
25871;DHT22;13689;48.590;7.752;2023-01-20T01:59:20;3.30;82.60
25871;DHT22;13689;48.590;7.752;2023-01-20T02:01:49;3.30;83.00
25871;DHT22;13689;48.590;7.752;2023-01-20T02:04:20;3.30;83.10
25871;DHT22;13689;48.590;7.752;2023-01-20T02:06:53;3.30;84.00
25871;DHT22;13689;48.590;7.752;2023-01-20T02:09:20;3.30;83.40
25871;DHT22;13689;48.590;7.752;2023-01-20T02:11:49;3.30;83.40
25871;DHT22;13689;48.590;7.752;2023-01-20T02:14:23;3.30;83.50
25871;DHT22;13689;48.590;7.752;2023-01-20T02:22:26;3.30;83.40
25871;DHT22;13689;48.590;7.752;2023-01-20T02:25:02;3.30;83.50
25871;DHT22;13689;48.590;7.752;2023-01-20T02:30:54;3.20;83.80
25871;DHT22;13689;48.590;7.752;2023-01-20T02:33:38;3.30;84.00
25871;DHT22;13689;48.590;7.752;2023-01-20T02:36:08;3.30;83.90
25871;DHT22;13689;48.590;7.752;2023-01-20T02:38:46;3.40;83.80
25871;DHT22;13689;48.590;7.752;2023-01-20T02:41:19;3.40;83.70
25871;DHT22;13689;48.590;7.752;2023-01-20T02:44:12;3.50;83.60
25871;DHT22;13689;48.590;7.752;2023-01-20T02:49:45;3.60;84.40
25871;DHT22;13689;48.590;7.752;2023-01-20T02:52:17;3.60;83.50
25871;DHT22;13689;48.590;7.752;2023-01-20T02:54:48;3.60;83.50
25871;DHT22;13689;48.590;7.752;2023-01-20T02:57:28;3.60;83.50
25871;DHT22;13689;48.590;7.752;2023-01-20T02:59:59;3.60;83.50
25871;DHT22;13689;48.590;7.752;2023-01-20T03:02:27;3.60;83.50
25871;DHT22;13689;48.590;7.752;2023-01-20T03:05:17;3.50;83.50
25871;DHT22;13689;48.590;7.752;2023-01-20T03:07:45;3.60;83.60
25871;DHT22;13689;48.590;7.752;2023-01-20T03:10:15;3.60;83.70
25871;DHT22;13689;48.590;7.752;2023-01-20T03:12:49;3.60;83.70
25871;DHT22;13689;48.590;7.752;2023-01-20T03:15:19;3.60;83.70
25871;DHT22;13689;48.590;7.752;2023-01-20T03:17:46;3.50;83.60
25871;DHT22;13689;48.590;7.752;2023-01-20T03:20:12;3.50;83.70
25871;DHT22;13689;48.590;7.752;2023-01-20T03:22:38;3.50;83.70
25871;DHT22;13689;48.590;7.752;2023-01-20T03:25:04;3.50;83.90
25871;DHT22;13689;48.590;7.752;2023-01-20T03:27:32;3.50;83.90
25871;DHT22;13689;48.590;7.752;2023-01-20T03:29:58;3.50;83.90
25871;DHT22;13689;48.590;7.752;2023-01-20T03:32:24;3.50;84.00
25871;DHT22;13689;48.590;7.752;2023-01-20T03:34:53;3.50;84.00
25871;DHT22;13689;48.590;7.752;2023-01-20T03:37:19;3.40;84.00
25871;DHT22;13689;48.590;7.752;2023-01-20T03:39:44;3.40;84.10
25871;DHT22;13689;48.590;7.752;2023-01-20T03:42:18;3.40;84.30
25871;DHT22;13689;48.590;7.752;2023-01-20T03:44:58;3.40;84.20
25871;DHT22;13689;48.590;7.752;2023-01-20T03:52:54;3.30;84.40
25871;DHT22;13689;48.590;7.752;2023-01-20T03:55:30;3.30;84.40
25871;DHT22;13689;48.590;7.752;2023-01-20T03:58:04;3.30;84.40
25871;DHT22;13689;48.590;7.752;2023-01-20T04:00:36;3.30;84.40
25871;DHT22;13689;48.590;7.752;2023-01-20T04:03:06;3.30;84.50
25871;DHT22;13689;48.590;7.752;2023-01-20T04:05:34;3.40;84.50
25871;DHT22;13689;48.590;7.752;2023-01-20T04:08:04;3.40;84.40
25871;DHT22;13689;48.590;7.752;2023-01-20T04:10:31;3.30;84.40
25871;DHT22;13689;48.590;7.752;2023-01-20T04:12:59;3.30;84.50
25871;DHT22;13689;48.590;7.752;2023-01-20T04:15:25;3.30;84.60
25871;DHT22;13689;48.590;7.752;2023-01-20T04:17:53;3.30;84.60
25871;DHT22;13689;48.590;7.752;2023-01-20T04:20:19;3.30;84.70
25871;DHT22;13689;48.590;7.752;2023-01-20T04:22:49;3.30;84.80
25871;DHT22;13689;48.590;7.752;2023-01-20T04:25:27;3.30;84.70
25871;DHT22;13689;48.590;7.752;2023-01-20T04:27:53;3.30;84.80
25871;DHT22;13689;48.590;7.752;2023-01-20T04:30:20;3.30;84.80
25871;DHT22;13689;48.590;7.752;2023-01-20T04:32:45;3.30;84.80
25871;DHT22;13689;48.590;7.752;2023-01-20T04:35:16;3.30;84.90
25871;DHT22;13689;48.590;7.752;2023-01-20T04:37:42;3.20;84.80
25871;DHT22;13689;48.590;7.752;2023-01-20T04:40:09;3.20;84.80
25871;DHT22;13689;48.590;7.752;2023-01-20T04:42:35;3.20;84.90
25871;DHT22;13689;48.590;7.752;2023-01-20T04:45:00;3.10;84.80
25871;DHT22;13689;48.590;7.752;2023-01-20T04:47:30;3.00;84.80
25871;DHT22;13689;48.590;7.752;2023-01-20T04:49:55;2.90;84.90
25871;DHT22;13689;48.590;7.752;2023-01-20T04:52:21;2.90;85.80
25871;DHT22;13689;48.590;7.752;2023-01-20T04:54:47;2.80;85.00
25871;DHT22;13689;48.590;7.752;2023-01-20T04:57:12;2.80;85.10
25871;DHT22;13689;48.590;7.752;2023-01-20T04:59:38;2.80;85.20
25871;DHT22;13689;48.590;7.752;2023-01-20T05:02:04;2.80;85.20
25871;DHT22;13689;48.590;7.752;2023-01-20T05:04:29;2.80;85.30
25871;DHT22;13689;48.590;7.752;2023-01-20T05:06:55;2.70;85.30
25871;DHT22;13689;48.590;7.752;2023-01-20T05:09:20;2.70;85.30
25871;DHT22;13689;48.590;7.752;2023-01-20T05:11:46;2.70;85.30
25871;DHT22;13689;48.590;7.752;2023-01-20T05:14:12;2.70;85.30
25871;DHT22;13689;48.590;7.752;2023-01-20T05:16:38;2.70;85.40
25871;DHT22;13689;48.590;7.752;2023-01-20T05:19:04;2.70;85.40
25871;DHT22;13689;48.590;7.752;2023-01-20T05:21:29;2.70;85.50
25871;DHT22;13689;48.590;7.752;2023-01-20T05:23:56;2.70;85.40
25871;DHT22;13689;48.590;7.752;2023-01-20T05:26:23;2.70;85.40
25871;DHT22;13689;48.590;7.752;2023-01-20T05:28:48;2.70;85.40
25871;DHT22;13689;48.590;7.752;2023-01-20T05:31:14;2.80;85.40
25871;DHT22;13689;48.590;7.752;2023-01-20T05:33:40;2.90;85.30
25871;DHT22;13689;48.590;7.752;2023-01-20T05:36:06;2.90;85.20
25871;DHT22;13689;48.590;7.752;2023-01-20T05:38:32;3.00;85.10
25871;DHT22;13689;48.590;7.752;2023-01-20T05:40:59;3.00;85.00
25871;DHT22;13689;48.590;7.752;2023-01-20T05:43:25;3.00;84.90
25871;DHT22;13689;48.590;7.752;2023-01-20T05:45:51;3.10;84.90
25871;DHT22;13689;48.590;7.752;2023-01-20T05:48:17;3.10;84.70
25871;DHT22;13689;48.590;7.752;2023-01-20T05:50:43;3.00;84.50
25871;DHT22;13689;48.590;7.752;2023-01-20T05:53:08;3.00;84.50
25871;DHT22;13689;48.590;7.752;2023-01-20T05:55:34;3.00;84.60
25871;DHT22;13689;48.590;7.752;2023-01-20T05:58:00;3.00;84.70
25871;DHT22;13689;48.590;7.752;2023-01-20T06:00:27;3.00;84.60
25871;DHT22;13689;48.590;7.752;2023-01-20T06:02:52;3.10;84.60
25871;DHT22;13689;48.590;7.752;2023-01-20T06:05:18;3.10;84.50
25871;DHT22;13689;48.590;7.752;2023-01-20T06:07:43;3.10;84.30
25871;DHT22;13689;48.590;7.752;2023-01-20T06:10:10;3.10;84.30
25871;DHT22;13689;48.590;7.752;2023-01-20T06:12:36;3.10;84.30
25871;DHT22;13689;48.590;7.752;2023-01-20T06:15:02;3.10;84.30
25871;DHT22;13689;48.590;7.752;2023-01-20T06:17:28;3.10;84.30
25871;DHT22;13689;48.590;7.752;2023-01-20T06:19:53;3.10;84.20
25871;DHT22;13689;48.590;7.752;2023-01-20T06:22:19;3.20;84.30
25871;DHT22;13689;48.590;7.752;2023-01-20T06:24:45;3.20;84.20
25871;DHT22;13689;48.590;7.752;2023-01-20T06:27:11;3.20;84.10
25871;DHT22;13689;48.590;7.752;2023-01-20T06:29:37;3.20;84.00
25871;DHT22;13689;48.590;7.752;2023-01-20T06:32:03;3.20;83.90
25871;DHT22;13689;48.590;7.752;2023-01-20T06:34:29;3.30;84.00
25871;DHT22;13689;48.590;7.752;2023-01-20T06:36:55;3.30;84.00
25871;DHT22;13689;48.590;7.752;2023-01-20T06:39:21;3.30;83.90
25871;DHT22;13689;48.590;7.752;2023-01-20T06:41:47;3.30;83.80
25871;DHT22;13689;48.590;7.752;2023-01-20T06:44:12;3.30;83.70
25871;DHT22;13689;48.590;7.752;2023-01-20T06:46:38;3.30;83.60
25871;DHT22;13689;48.590;7.752;2023-01-20T06:49:03;3.30;83.60
25871;DHT22;13689;48.590;7.752;2023-01-20T06:51:29;3.30;83.60
25871;DHT22;13689;48.590;7.752;2023-01-20T06:53:56;3.30;83.50
25871;DHT22;13689;48.590;7.752;2023-01-20T06:56:22;3.30;83.50
25871;DHT22;13689;48.590;7.752;2023-01-20T06:58:48;3.40;83.50
25871;DHT22;13689;48.590;7.752;2023-01-20T07:01:24;3.40;83.50
25871;DHT22;13689;48.590;7.752;2023-01-20T07:03:51;3.40;83.30
25871;DHT22;13689;48.590;7.752;2023-01-20T07:06:21;3.30;83.10
25871;DHT22;13689;48.590;7.752;2023-01-20T07:08:49;3.30;83.20
25871;DHT22;13689;48.590;7.752;2023-01-20T07:11:15;3.30;83.20
25871;DHT22;13689;48.590;7.752;2023-01-20T07:13:41;3.20;83.10
25871;DHT22;13689;48.590;7.752;2023-01-20T07:16:07;3.20;83.10
25871;DHT22;13689;48.590;7.752;2023-01-20T07:18:33;3.10;83.00
25871;DHT22;13689;48.590;7.752;2023-01-20T07:20:58;3.10;83.00
25871;DHT22;13689;48.590;7.752;2023-01-20T07:23:26;3.10;83.10
25871;DHT22;13689;48.590;7.752;2023-01-20T07:26:06;3.10;83.20
25871;DHT22;13689;48.590;7.752;2023-01-20T07:28:32;3.00;83.30
25871;DHT22;13689;48.590;7.752;2023-01-20T07:31:06;3.00;83.30
25871;DHT22;13689;48.590;7.752;2023-01-20T07:33:32;2.90;83.30
25871;DHT22;13689;48.590;7.752;2023-01-20T07:35:58;2.90;83.40
25871;DHT22;13689;48.590;7.752;2023-01-20T07:38:24;2.80;83.40
25871;DHT22;13689;48.590;7.752;2023-01-20T07:40:51;2.90;83.60
25871;DHT22;13689;48.590;7.752;2023-01-20T07:43:17;2.80;83.60
25871;DHT22;13689;48.590;7.752;2023-01-20T07:45:42;2.80;83.60
25871;DHT22;13689;48.590;7.752;2023-01-20T07:48:08;2.80;83.60
25871;DHT22;13689;48.590;7.752;2023-01-20T07:50:35;2.70;83.70
25871;DHT22;13689;48.590;7.752;2023-01-20T07:53:01;2.80;83.90
25871;DHT22;13689;48.590;7.752;2023-01-20T07:55:27;2.80;83.90
25871;DHT22;13689;48.590;7.752;2023-01-20T07:57:53;2.80;84.00
25871;DHT22;13689;48.590;7.752;2023-01-20T08:00:19;2.90;84.00
25871;DHT22;13689;48.590;7.752;2023-01-20T08:02:45;2.90;84.00
25871;DHT22;13689;48.590;7.752;2023-01-20T08:05:11;2.80;84.00
25871;DHT22;13689;48.590;7.752;2023-01-20T08:07:36;2.80;84.10
25871;DHT22;13689;48.590;7.752;2023-01-20T08:10:02;2.80;84.20
25871;DHT22;13689;48.590;7.752;2023-01-20T08:12:29;2.90;84.30
25871;DHT22;13689;48.590;7.752;2023-01-20T08:14:55;2.90;84.40
25871;DHT22;13689;48.590;7.752;2023-01-20T08:17:21;3.00;84.50
25871;DHT22;13689;48.590;7.752;2023-01-20T08:19:47;2.90;84.40
25871;DHT22;13689;48.590;7.752;2023-01-20T08:22:12;3.00;84.50
25871;DHT22;13689;48.590;7.752;2023-01-20T08:24:38;3.00;84.60
25871;DHT22;13689;48.590;7.752;2023-01-20T08:27:04;2.90;84.60
25871;DHT22;13689;48.590;7.752;2023-01-20T08:29:29;2.90;84.60
25871;DHT22;13689;48.590;7.752;2023-01-20T08:32:01;2.90;84.70
25871;DHT22;13689;48.590;7.752;2023-01-20T08:34:27;2.90;84.90
25871;DHT22;13689;48.590;7.752;2023-01-20T08:36:53;2.90;85.00
25871;DHT22;13689;48.590;7.752;2023-01-20T08:39:22;2.90;85.10
25871;DHT22;13689;48.590;7.752;2023-01-20T08:41:49;3.00;85.20
25871;DHT22;13689;48.590;7.752;2023-01-20T08:44:15;3.00;85.20
25871;DHT22;13689;48.590;7.752;2023-01-20T08:46:42;3.00;85.30
25871;DHT22;13689;48.590;7.752;2023-01-20T08:49:15;3.10;85.40
25871;DHT22;13689;48.590;7.752;2023-01-20T08:51:42;3.10;85.40
25871;DHT22;13689;48.590;7.752;2023-01-20T08:54:09;3.20;85.50
25871;DHT22;13689;48.590;7.752;2023-01-20T08:56:34;3.20;85.50
25871;DHT22;13689;48.590;7.752;2023-01-20T08:59:01;3.20;85.50
25871;DHT22;13689;48.590;7.752;2023-01-20T09:01:29;3.20;85.50
25871;DHT22;13689;48.590;7.752;2023-01-20T09:03:56;3.20;85.50
25871;DHT22;13689;48.590;7.752;2023-01-20T09:06:22;3.30;85.60
25871;DHT22;13689;48.590;7.752;2023-01-20T09:08:49;3.40;85.70
25871;DHT22;13689;48.590;7.752;2023-01-20T09:11:17;3.40;85.70
25871;DHT22;13689;48.590;7.752;2023-01-20T09:13:43;3.50;85.70
25871;DHT22;13689;48.590;7.752;2023-01-20T09:16:16;3.60;85.80
25871;DHT22;13689;48.590;7.752;2023-01-20T09:18:42;4.20;85.90
25871;DHT22;13689;48.590;7.752;2023-01-20T09:21:09;4.90;85.80
25871;DHT22;13689;48.590;7.752;2023-01-20T09:23:37;5.60;85.50
25871;DHT22;13689;48.590;7.752;2023-01-20T09:26:04;6.10;84.80
25871;DHT22;13689;48.590;7.752;2023-01-20T09:28:30;6.60;84.60
25871;DHT22;13689;48.590;7.752;2023-01-20T09:30:57;7.00;84.10
25871;DHT22;13689;48.590;7.752;2023-01-20T09:33:23;7.30;84.10
25871;DHT22;13689;48.590;7.752;2023-01-20T09:35:55;7.70;83.70
25871;DHT22;13689;48.590;7.752;2023-01-20T09:38:22;8.10;83.00
25871;DHT22;13689;48.590;7.752;2023-01-20T09:41:26;8.50;82.40
25871;DHT22;13689;48.590;7.752;2023-01-20T09:47:10;9.90;79.60
25871;DHT22;13689;48.590;7.752;2023-01-20T09:53:10;11.30;75.10
25871;DHT22;13689;48.590;7.752;2023-01-20T09:55:53;12.00;73.30
25871;DHT22;13689;48.590;7.752;2023-01-20T09:58:37;12.40;71.60
25871;DHT22;13689;48.590;7.752;2023-01-20T10:01:21;12.60;70.70
25871;DHT22;13689;48.590;7.752;2023-01-20T10:03:57;12.60;70.10
25871;DHT22;13689;48.590;7.752;2023-01-20T10:06:44;12.50;69.30
25871;DHT22;13689;48.590;7.752;2023-01-20T10:09:30;11.20;69.50
25871;DHT22;13689;48.590;7.752;2023-01-20T10:12:04;10.50;70.60
25871;DHT22;13689;48.590;7.752;2023-01-20T10:14:52;10.70;71.20
25871;DHT22;13689;48.590;7.752;2023-01-20T10:17:31;11.40;70.00
25871;DHT22;13689;48.590;7.752;2023-01-20T10:20:09;12.10;68.30
25871;DHT22;13689;48.590;7.752;2023-01-20T10:22:47;13.00;66.20
25871;DHT22;13689;48.590;7.752;2023-01-20T10:25:19;13.30;63.60
25871;DHT22;13689;48.590;7.752;2023-01-20T10:28:08;13.40;61.80
25871;DHT22;13689;48.590;7.752;2023-01-20T10:30:36;13.40;60.30
25871;DHT22;13689;48.590;7.752;2023-01-20T10:33:13;14.10;59.00
25871;DHT22;13689;48.590;7.752;2023-01-20T10:35:47;14.70;58.10
25871;DHT22;13689;48.590;7.752;2023-01-20T10:38:39;15.00;55.70
25871;DHT22;13689;48.590;7.752;2023-01-20T10:43:50;15.20;53.70
25871;DHT22;13689;48.590;7.752;2023-01-20T10:46:47;12.40;55.10
25871;DHT22;13689;48.590;7.752;2023-01-20T10:58:07;7.40;63.60
25871;DHT22;13689;48.590;7.752;2023-01-20T11:00:38;7.00;64.50
25871;DHT22;13689;48.590;7.752;2023-01-20T11:03:05;6.70;64.10
25871;DHT22;13689;48.590;7.752;2023-01-20T11:05:37;6.50;64.30
25871;DHT22;13689;48.590;7.752;2023-01-20T11:10:40;6.20;64.60
25871;DHT22;13689;48.590;7.752;2023-01-20T11:13:09;6.00;64.80
25871;DHT22;13689;48.590;7.752;2023-01-20T11:15:39;5.80;65.10
25871;DHT22;13689;48.590;7.752;2023-01-20T11:20:52;5.60;65.60
25871;DHT22;13689;48.590;7.752;2023-01-20T11:23:30;5.60;66.00
25871;DHT22;13689;48.590;7.752;2023-01-20T11:26:03;5.50;66.10
25871;DHT22;13689;48.590;7.752;2023-01-20T11:28:53;5.50;66.30
25871;DHT22;13689;48.590;7.752;2023-01-20T11:31:32;5.60;66.50
25871;DHT22;13689;48.590;7.752;2023-01-20T11:36:44;5.70;66.70
25871;DHT22;13689;48.590;7.752;2023-01-20T11:40:16;5.70;66.90
25871;DHT22;13689;48.590;7.752;2023-01-20T11:42:22;5.80;67.10
25871;DHT22;13689;48.590;7.752;2023-01-20T11:45:00;5.90;67.10
25871;DHT22;13689;48.590;7.752;2023-01-20T11:47:31;6.00;67.10
25871;DHT22;13689;48.590;7.752;2023-01-20T11:52:37;6.20;66.80
25871;DHT22;13689;48.590;7.752;2023-01-20T11:55:20;6.30;67.00
25871;DHT22;13689;48.590;7.752;2023-01-20T11:58:00;6.40;67.00
25871;DHT22;13689;48.590;7.752;2023-01-20T12:00:28;6.60;66.80
25871;DHT22;13689;48.590;7.752;2023-01-20T12:03:01;6.60;66.60
25871;DHT22;13689;48.590;7.752;2023-01-20T12:05:44;6.70;66.50
25871;DHT22;13689;48.590;7.752;2023-01-20T12:08:22;6.80;66.40
25871;DHT22;13689;48.590;7.752;2023-01-20T12:10:50;6.80;66.40
25871;DHT22;13689;48.590;7.752;2023-01-20T12:13:23;6.80;66.50
25871;DHT22;13689;48.590;7.752;2023-01-20T12:15:54;6.80;66.60
25871;DHT22;13689;48.590;7.752;2023-01-20T12:20:55;6.70;66.40
25871;DHT22;13689;48.590;7.752;2023-01-20T12:26:17;6.60;66.00
25871;DHT22;13689;48.590;7.752;2023-01-20T12:31:21;6.70;65.60
25871;DHT22;13689;48.590;7.752;2023-01-20T12:34:02;6.70;65.40
25871;DHT22;13689;48.590;7.752;2023-01-20T12:50:35;6.00;64.60
25871;DHT22;13689;48.590;7.752;2023-01-20T12:56:39;5.80;64.70
25871;DHT22;13689;48.590;7.752;2023-01-20T13:02:07;5.80;64.90
25871;DHT22;13689;48.590;7.752;2023-01-20T13:12:59;5.80;65.10
25871;DHT22;13689;48.590;7.752;2023-01-20T13:15:53;5.80;65.10
25871;DHT22;13689;48.590;7.752;2023-01-20T13:21:11;6.10;65.30
25871;DHT22;13689;48.590;7.752;2023-01-20T13:23:40;6.20;65.40
25871;DHT22;13689;48.590;7.752;2023-01-20T13:26:06;6.20;65.50
25871;DHT22;13689;48.590;7.752;2023-01-20T13:28:33;6.10;65.60
25871;DHT22;13689;48.590;7.752;2023-01-20T13:31:00;6.10;66.00
25871;DHT22;13689;48.590;7.752;2023-01-20T13:33:45;6.20;66.40
25871;DHT22;13689;48.590;7.752;2023-01-20T13:36:21;6.20;66.40
25871;DHT22;13689;48.590;7.752;2023-01-20T13:38:49;6.10;66.50
25871;DHT22;13689;48.590;7.752;2023-01-20T13:41:47;6.10;66.60
25871;DHT22;13689;48.590;7.752;2023-01-20T13:44:38;6.10;66.90
25871;DHT22;13689;48.590;7.752;2023-01-20T13:47:08;6.10;66.70
25871;DHT22;13689;48.590;7.752;2023-01-20T13:49:45;6.10;66.70
25871;DHT22;13689;48.590;7.752;2023-01-20T13:52:12;6.00;66.90
25871;DHT22;13689;48.590;7.752;2023-01-20T13:54:43;6.10;67.00
25871;DHT22;13689;48.590;7.752;2023-01-20T13:59:52;6.10;67.00
25871;DHT22;13689;48.590;7.752;2023-01-20T14:02:23;6.10;66.90
25871;DHT22;13689;48.590;7.752;2023-01-20T14:04:49;6.20;67.00
25871;DHT22;13689;48.590;7.752;2023-01-20T14:07:26;6.20;67.00
25871;DHT22;13689;48.590;7.752;2023-01-20T14:09:57;6.20;66.90
25871;DHT22;13689;48.590;7.752;2023-01-20T14:12:24;6.10;66.90
25871;DHT22;13689;48.590;7.752;2023-01-20T14:14:50;6.00;67.10
25871;DHT22;13689;48.590;7.752;2023-01-20T14:17:21;6.00;67.40
25871;DHT22;13689;48.590;7.752;2023-01-20T14:19:49;6.00;67.50
25871;DHT22;13689;48.590;7.752;2023-01-20T14:22:16;6.00;67.50
25871;DHT22;13689;48.590;7.752;2023-01-20T14:24:44;6.00;67.60
25871;DHT22;13689;48.590;7.752;2023-01-20T14:29:48;6.00;67.70
25871;DHT22;13689;48.590;7.752;2023-01-20T14:34:46;6.00;67.80
25871;DHT22;13689;48.590;7.752;2023-01-20T14:37:25;6.00;67.90
25871;DHT22;13689;48.590;7.752;2023-01-20T14:39:52;5.90;68.00
25871;DHT22;13689;48.590;7.752;2023-01-20T14:42:21;5.90;68.20
25871;DHT22;13689;48.590;7.752;2023-01-20T14:44:48;5.90;68.10
25871;DHT22;13689;48.590;7.752;2023-01-20T14:47:15;5.90;68.20
25871;DHT22;13689;48.590;7.752;2023-01-20T14:49:41;5.80;68.20
25871;DHT22;13689;48.590;7.752;2023-01-20T14:52:26;5.80;68.30
25871;DHT22;13689;48.590;7.752;2023-01-20T14:54:53;5.80;68.50
25871;DHT22;13689;48.590;7.752;2023-01-20T14:57:33;5.80;68.50
25871;DHT22;13689;48.590;7.752;2023-01-20T15:00:11;5.90;68.60
25871;DHT22;13689;48.590;7.752;2023-01-20T15:02:41;5.90;68.30
25871;DHT22;13689;48.590;7.752;2023-01-20T15:05:25;5.90;68.10
25871;DHT22;13689;48.590;7.752;2023-01-20T15:10:41;5.80;67.80
25871;DHT22;13689;48.590;7.752;2023-01-20T15:13:26;5.70;68.00
25871;DHT22;13689;48.590;7.752;2023-01-20T15:16:05;5.70;68.00
25871;DHT22;13689;48.590;7.752;2023-01-20T15:18:32;5.70;67.90
25871;DHT22;13689;48.590;7.752;2023-01-20T15:21:23;5.70;67.90
25871;DHT22;13689;48.590;7.752;2023-01-20T15:23:51;5.60;67.80
25871;DHT22;13689;48.590;7.752;2023-01-20T15:26:27;5.60;67.90
25871;DHT22;13689;48.590;7.752;2023-01-20T15:28:54;5.50;68.00
25871;DHT22;13689;48.590;7.752;2023-01-20T15:31:20;5.50;68.10
25871;DHT22;13689;48.590;7.752;2023-01-20T15:33:46;5.50;68.20
25871;DHT22;13689;48.590;7.752;2023-01-20T15:36:26;5.40;68.30
25871;DHT22;13689;48.590;7.752;2023-01-20T15:38:52;5.30;68.30
25871;DHT22;13689;48.590;7.752;2023-01-20T15:41:18;5.30;68.50
25871;DHT22;13689;48.590;7.752;2023-01-20T15:43:44;5.30;69.30
25871;DHT22;13689;48.590;7.752;2023-01-20T15:46:14;5.30;68.60
25871;DHT22;13689;48.590;7.752;2023-01-20T15:48:42;5.30;68.60
25871;DHT22;13689;48.590;7.752;2023-01-20T15:51:18;5.30;68.60
25871;DHT22;13689;48.590;7.752;2023-01-20T15:53:44;5.30;68.50
25871;DHT22;13689;48.590;7.752;2023-01-20T15:56:29;5.20;68.40
25871;DHT22;13689;48.590;7.752;2023-01-20T15:58:56;5.20;68.30
25871;DHT22;13689;48.590;7.752;2023-01-20T16:01:23;5.20;68.30
25871;DHT22;13689;48.590;7.752;2023-01-20T16:03:54;5.20;68.20
25871;DHT22;13689;48.590;7.752;2023-01-20T16:06:23;5.20;68.20
25871;DHT22;13689;48.590;7.752;2023-01-20T16:08:50;5.10;68.10
25871;DHT22;13689;48.590;7.752;2023-01-20T16:11:17;5.10;68.10
25871;DHT22;13689;48.590;7.752;2023-01-20T16:13:43;5.10;68.30
25871;DHT22;13689;48.590;7.752;2023-01-20T16:16:14;5.00;68.30
25871;DHT22;13689;48.590;7.752;2023-01-20T16:18:40;5.00;68.40
25871;DHT22;13689;48.590;7.752;2023-01-20T16:21:06;5.00;68.40
25871;DHT22;13689;48.590;7.752;2023-01-20T16:23:34;4.90;68.50
25871;DHT22;13689;48.590;7.752;2023-01-20T16:25:59;4.90;68.60
25871;DHT22;13689;48.590;7.752;2023-01-20T16:28:25;4.80;68.50
25871;DHT22;13689;48.590;7.752;2023-01-20T16:30:51;4.80;68.50
25871;DHT22;13689;48.590;7.752;2023-01-20T16:33:25;4.80;68.50
25871;DHT22;13689;48.590;7.752;2023-01-20T16:35:52;4.80;68.60
25871;DHT22;13689;48.590;7.752;2023-01-20T16:38:21;4.80;68.50
25871;DHT22;13689;48.590;7.752;2023-01-20T16:41:01;4.80;69.10
25871;DHT22;13689;48.590;7.752;2023-01-20T16:43:28;4.80;68.30
25871;DHT22;13689;48.590;7.752;2023-01-20T16:45:54;4.80;68.40
25871;DHT22;13689;48.590;7.752;2023-01-20T16:48:21;4.80;68.20
25871;DHT22;13689;48.590;7.752;2023-01-20T16:50:47;4.80;68.30
25871;DHT22;13689;48.590;7.752;2023-01-20T16:53:14;4.80;68.20
25871;DHT22;13689;48.590;7.752;2023-01-20T16:55:45;4.90;68.30
25871;DHT22;13689;48.590;7.752;2023-01-20T16:58:12;4.90;68.30
25871;DHT22;13689;48.590;7.752;2023-01-20T17:00:38;4.90;68.30
25871;DHT22;13689;48.590;7.752;2023-01-20T17:03:05;4.90;68.30
25871;DHT22;13689;48.590;7.752;2023-01-20T17:05:31;4.90;68.30
25871;DHT22;13689;48.590;7.752;2023-01-20T17:07:57;4.90;68.30
25871;DHT22;13689;48.590;7.752;2023-01-20T17:10:25;4.90;68.40
25871;DHT22;13689;48.590;7.752;2023-01-20T17:12:51;4.90;68.40
25871;DHT22;13689;48.590;7.752;2023-01-20T17:15:17;4.90;68.50
25871;DHT22;13689;48.590;7.752;2023-01-20T17:17:50;5.00;68.90
25871;DHT22;13689;48.590;7.752;2023-01-20T17:20:19;4.90;68.40
25871;DHT22;13689;48.590;7.752;2023-01-20T17:22:45;4.90;68.50
25871;DHT22;13689;48.590;7.752;2023-01-20T17:25:12;5.00;68.70
25871;DHT22;13689;48.590;7.752;2023-01-20T17:27:38;5.00;68.60
25871;DHT22;13689;48.590;7.752;2023-01-20T17:30:06;5.00;68.50
25871;DHT22;13689;48.590;7.752;2023-01-20T17:32:35;4.90;68.40
25871;DHT22;13689;48.590;7.752;2023-01-20T17:35:00;4.90;68.50
25871;DHT22;13689;48.590;7.752;2023-01-20T17:37:27;4.90;68.60